Overview Statistics Trail Chart Weather Telemetry Raw packets
 

This is the latest recevied weather packets stored in our database for station/object HS3MXC-2. If no packets are shown the sender has not sent any weather packets the latest 10 day(s).

<< 32 33 34 35 36 37 38 >>
Time Temp. Humidity Pressure Rain* Wind** Luminosity Snow
1777435853 27.78° C 42% 997.1 hPa - - - -
1777435546 27.22° C 43% 997.1 hPa - - - -
1777435239 27.22° C 44% 997.1 hPa - - - -
1777434932 26.67° C 46% 997.2 hPa - - - -
1777434622 26.67° C 47% 997.3 hPa - - - -
1777434314 26.67° C 49% 997.6 hPa - - - -
1777434006 26.67° C 49% 997.6 hPa - - - -
1777433389 26.67° C 52% 997.7 hPa - - - -
1777433082 26.11° C 54% 997.7 hPa - - - -
1777432775 24.44° C 53% 997.7 hPa - - - -
1777432468 25° C 55% 997.8 hPa - - - -
1777432161 26.11° C 58% 997.8 hPa - - - -
1777431853 25.56° C 57% 998 hPa - - - -
1777431546 25.56° C 56% 998.1 hPa - - - -
1777430931 25° C 53% 998.2 hPa - - - -
1777430624 24.44° C 55% 998.2 hPa - - - -
1777430315 24.44° C 56% 998.2 hPa - - - -
1777429699 25.56° C 56% 998.1 hPa - - - -
1777429083 25° C 58% 998 hPa - - - -
1777428776 25.56° C 58% 998 hPa - - - -
1777427852 26.67° C 62% 998.2 hPa - - - -
1777427544 25.56° C 59% 998.2 hPa - - - -
1777427237 25.56° C 57% 998.3 hPa - - - -
1777426931 26.11° C 61% 998.1 hPa - - - -
1777426621 26.67° C 66% 998.2 hPa - - - -

* Rain since midnight (hover to see other rain measurements)
** Current wind speed in m/s (hover to see current wind gust speed)